Flugplatz Ochsenfurt

Für EDGJ sind keine METAR/TAF Berichte vorhanden.
Es werden die Flugwettermeldungen vom Flugplatz Illesheim Air Base in 31 km Entfernung angezeigt.

Bericht für ETIK

vom 20.10. um 18:56 UTC

kein Wind

Sichtweite 10 km oder mehr

keine Wolken

Temperatur 11.8°C

Taupunkt 11.8°C

Luftfeuchtigkeit 100%

Luftdruck 1010 hPa

ETIK 201856Z AUTO 00000KT 9999 CLR 12/12 A2983 RMK AO2 SLP103 T01180118

Prognose für ETIK

vom 20.10. um 00:00 UTC

Zwischen 00:00 UTC und 00:00 UTC

variable Windrichtung mit 6 kt

Sichtweite 10 km oder mehr

gering bewölkt in 4000 ft


Am 21.10. zwischen 00:00 und 00:00 UTC übergehend zu

Wind 6 kt aus 250°

Sichtweite 10 km oder mehr

aufgelockert bewölkt in 6000 ft

aufgebrochene Bewölkung in 10000 ft


Am 21.10. zwischen 00:00 und 00:00 UTC übergehend zu

Wind 6 kt aus 260°

Sichtweite 10 km oder mehr

aufgelockert bewölkt in 3000 ft

aufgebrochene Bewölkung in 6000 ft

TAF ETIK 201409Z 2014/2120 VRB06KT 9999 FEW040 QNH2981INS BECMG 2106/2107 25006KT 9999 SCT060 BKN100 QNH3001INS BECMG 2112/2113 26006KT 9999 SCT030 BKN060 QNH3011INS TX19/2014Z TN10/2103Z
Impressum